Time;durP1;ratioP1;P1;durP2;ratioP2;P2;SDS_P1;SDS_P2;PMS_P1;PMS_P2;Temp;Humidity;BMP_temperature;BMP_pressure;BME280_temperature;BME280_humidity;BME280_pressure;Samples;Min_cycle;Max_cycle;Signal;HPM_P1;HPM_P2
2023/12/06 00:00:25;;;;;;;34.42;20.50;;;1.50;99.90;;;;;;5128556;27;20061;-64
2023/12/06 00:02:51;;;;;;;35.55;20.13;;;1.50;99.90;;;;;;5132670;27;20499;-64
2023/12/06 00:05:17;;;;;;;33.97;19.88;;;1.40;99.90;;;;;;5133009;27;20047;-64
2023/12/06 00:07:43;;;;;;;33.53;20.23;;;1.60;99.90;;;;;;5131872;27;20564;-64
2023/12/06 00:10:09;;;;;;;32.72;20.17;;;1.50;99.90;;;;;;5132430;27;20039;-64
2023/12/06 00:12:35;;;;;;;32.15;20.02;;;1.60;99.90;;;;;;5115844;27;20054;-64
2023/12/06 00:15:07;;;;;;;31.15;19.52;;;1.50;99.90;;;;;;5115034;27;20047;-64
2023/12/06 00:17:33;;;;;;;32.55;18.98;;;1.50;99.90;;;;;;5115525;27;20083;-64
2023/12/06 00:19:59;;;;;;;33.95;20.60;;;1.50;99.90;;;;;;5115693;27;20042;-64
2023/12/06 00:22:24;;;;;;;30.85;18.60;;;1.50;99.90;;;;;;5114467;27;20043;-64
2023/12/06 00:24:53;;;;;;;31.90;19.50;;;1.50;99.90;;;;;;5115371;27;20510;-64
2023/12/06 00:27:19;;;;;;;38.42;21.42;;;1.60;99.90;;;;;;5115454;27;20400;-64
2023/12/06 00:29:45;;;;;;;33.92;19.98;;;1.60;99.90;;;;;;5113833;27;20095;-64
2023/12/06 00:32:11;;;;;;;30.98;19.38;;;1.50;99.90;;;;;;5112330;27;20117;-64
2023/12/06 00:34:36;;;;;;;34.40;19.38;;;1.60;99.90;;;;;;5132756;27;20122;-64
2023/12/06 00:37:02;;;;;;;30.83;18.33;;;1.50;99.90;;;;;;5115333;27;20050;-64
2023/12/06 00:39:28;;;;;;;30.50;18.30;;;1.50;99.90;;;;;;5132334;27;20047;-64
2023/12/06 00:41:54;;;;;;;30.10;18.00;;;1.60;99.90;;;;;;5131500;27;20422;-64
2023/12/06 00:44:19;;;;;;;32.20;18.63;;;1.60;99.90;;;;;;5114939;27;20484;-64
2023/12/06 00:46:45;;;;;;;33.30;19.42;;;1.70;99.90;;;;;;5114874;27;20043;-64
2023/12/06 00:49:11;;;;;;;30.70;18.88;;;1.60;99.90;;;;;;5132347;27;20035;-64
2023/12/06 00:51:38;;;;;;;28.98;18.70;;;1.60;99.90;;;;;;5125938;27;20035;-64
2023/12/06 00:54:04;;;;;;;26.98;17.67;;;1.70;99.90;;;;;;5115339;27;20384;-64
2023/12/06 00:56:29;;;;;;;28.75;16.70;;;1.70;99.90;;;;;;5113889;27;20038;-64
2023/12/06 00:58:55;;;;;;;25.13;16.42;;;1.70;99.90;;;;;;5133145;27;20059;-64
2023/12/06 01:01:21;;;;;;;24.63;16.60;;;1.70;99.90;;;;;;5120614;27;20047;-64
2023/12/06 01:03:47;;;;;;;21.02;14.75;;;1.70;99.90;;;;;;5131075;27;20047;-64
2023/12/06 01:06:13;;;;;;;21.10;13.73;;;1.70;99.90;;;;;;5131802;27;20050;-64
2023/12/06 01:08:39;;;;;;;22.63;15.00;;;1.70;99.90;;;;;;5131769;27;20093;-64
2023/12/06 01:11:07;;;;;;;22.08;14.60;;;1.70;99.90;;;;;;5127397;28;20039;-64
2023/12/06 01:13:36;;;;;;;23.48;13.68;;;1.80;99.90;;;;;;5097351;28;20483;-64
2023/12/06 01:16:02;;;;;;;22.38;13.93;;;1.80;99.90;;;;;;5114836;28;20070;-64
2023/12/06 01:18:27;;;;;;;21.58;13.80;;;1.80;99.90;;;;;;5113933;28;20082;-64
2023/12/06 01:20:53;;;;;;;20.65;12.65;;;1.90;99.90;;;;;;5114858;28;20046;-64
2023/12/06 01:23:19;;;;;;;21.25;12.68;;;1.90;99.90;;;;;;5114439;28;20046;-64
2023/12/06 01:25:44;;;;;;;18.95;13.25;;;1.90;99.90;;;;;;5114193;28;20027;-64
2023/12/06 01:28:10;;;;;;;19.23;12.23;;;2.00;99.90;;;;;;5114860;28;20472;-64
2023/12/06 01:30:36;;;;;;;22.58;15.05;;;2.00;99.90;;;;;;5114097;28;20488;-64
2023/12/06 01:33:02;;;;;;;20.52;14.00;;;2.00;99.90;;;;;;5128957;28;20039;-64
2023/12/06 01:35:27;;;;;;;18.77;13.20;;;1.90;99.90;;;;;;5114496;28;20046;-64
2023/12/06 01:37:53;;;;;;;19.83;13.07;;;2.00;99.90;;;;;;5113769;28;20042;-64
2023/12/06 01:40:19;;;;;;;17.83;13.32;;;2.00;99.90;;;;;;5115491;27;20400;-64
2023/12/06 01:42:46;;;;;;;22.73;13.18;;;1.90;99.90;;;;;;5135279;27;20096;-64
2023/12/06 01:45:12;;;;;;;19.00;12.70;;;2.00;99.90;;;;;;5134970;27;20107;-64
2023/12/06 01:47:39;;;;;;;18.17;12.43;;;2.00;99.90;;;;;;5135323;27;20434;-64
2023/12/06 01:50:07;;;;;;;20.55;13.38;;;1.90;99.90;;;;;;5127455;27;20456;-64
2023/12/06 01:52:33;;;;;;;20.83;13.23;;;2.00;99.90;;;;;;5100241;27;20043;-64
2023/12/06 01:54:59;;;;;;;18.38;12.60;;;1.90;99.90;;;;;;5112837;27;20070;-64
2023/12/06 01:57:27;;;;;;;18.75;13.25;;;2.00;99.90;;;;;;5135127;27;20504;-64
2023/12/06 01:59:54;;;;;;;19.67;13.70;;;2.00;99.90;;;;;;5117181;27;20100;-64
2023/12/06 02:02:20;;;;;;;21.73;12.98;;;2.00;99.90;;;;;;5122337;27;20035;-64
2023/12/06 02:04:46;;;;;;;19.80;13.07;;;2.00;99.90;;;;;;5101115;27;20050;-64
2023/12/06 02:07:12;;;;;;;18.40;11.80;;;2.00;99.90;;;;;;5117157;27;20039;-64
2023/12/06 02:09:38;;;;;;;19.33;11.90;;;2.00;99.90;;;;;;5118037;27;20039;-64
2023/12/06 02:12:04;;;;;;;21.35;13.50;;;2.10;99.90;;;;;;5119083;27;20039;-64
2023/12/06 02:14:34;;;;;;;17.90;12.00;;;2.00;99.90;;;;;;5099861;27;20035;-64
2023/12/06 02:17:02;;;;;;;16.23;11.73;;;2.00;99.90;;;;;;5100978;27;20061;-62
2023/12/06 02:19:28;;;;;;;20.02;12.82;;;2.00;99.90;;;;;;5100777;27;20047;-62
2023/12/06 02:21:55;;;;;;;18.63;12.77;;;2.00;99.90;;;;;;5129578;27;20039;-61
2023/12/06 02:24:24;;;;;;;19.52;12.05;;;2.00;99.90;;;;;;5117700;27;20050;-62
2023/12/06 02:26:52;;;;;;;19.10;11.30;;;2.00;99.90;;;;;;5135965;27;20043;-62
2023/12/06 02:29:18;;;;;;;19.70;12.77;;;2.10;99.90;;;;;;5133854;27;20051;-62
2023/12/06 02:31:44;;;;;;;17.83;12.60;;;2.00;99.90;;;;;;5134638;27;20131;-63
2023/12/06 02:34:14;;;;;;;19.42;13.00;;;2.00;99.90;;;;;;5134033;27;20495;-62
2023/12/06 02:36:42;;;;;;;20.02;12.65;;;2.00;99.90;;;;;;5134771;27;20031;-62
2023/12/06 02:39:09;;;;;;;17.35;11.60;;;2.10;99.90;;;;;;5134796;27;20197;-62
2023/12/06 02:41:35;;;;;;;16.83;11.95;;;2.00;99.90;;;;;;5124581;27;20043;-62
2023/12/06 02:44:01;;;;;;;17.90;12.27;;;2.00;99.90;;;;;;5117451;27;20387;-62
2023/12/06 02:46:27;;;;;;;16.17;11.73;;;2.00;99.90;;;;;;5116637;27;20057;-64
2023/12/06 02:48:53;;;;;;;17.45;11.05;;;2.00;99.90;;;;;;5116401;27;20479;-64
2023/12/06 02:51:22;;;;;;;18.38;12.40;;;2.00;99.90;;;;;;5116776;27;20039;-64
2023/12/06 02:53:48;;;;;;;20.08;12.00;;;2.00;99.90;;;;;;5117010;27;20403;-64
2023/12/06 02:56:14;;;;;;;18.77;11.32;;;2.00;99.90;;;;;;5134572;27;20395;-64
2023/12/06 02:58:40;;;;;;;16.77;11.25;;;2.00;99.90;;;;;;5116569;27;20043;-64
2023/12/06 03:01:05;;;;;;;18.65;11.77;;;2.10;99.90;;;;;;5117074;27;20126;-64
2023/12/06 03:03:31;;;;;;;20.58;14.43;;;2.00;99.90;;;;;;5116019;27;20035;-64
2023/12/06 03:05:57;;;;;;;15.75;11.32;;;2.00;99.90;;;;;;5116986;27;20075;-64
2023/12/06 03:08:22;;;;;;;20.52;12.15;;;1.90;99.90;;;;;;5116884;27;20039;-64
2023/12/06 03:10:48;;;;;;;17.17;10.95;;;2.00;99.90;;;;;;5116030;27;20051;-64
2023/12/06 03:13:14;;;;;;;17.60;11.63;;;2.00;99.90;;;;;;5099361;27;20486;-63
2023/12/06 03:15:39;;;;;;;16.67;10.70;;;1.90;99.90;;;;;;5135079;27;20036;-64
2023/12/06 03:18:05;;;;;;;15.77;10.57;;;1.90;99.90;;;;;;5116070;27;20035;-64
2023/12/06 03:20:30;;;;;;;21.77;14.32;;;2.00;99.90;;;;;;5116364;27;20043;-64
2023/12/06 03:22:56;;;;;;;34.55;19.45;;;2.10;99.90;;;;;;5099739;27;20039;-64
2023/12/06 03:25:22;;;;;;;41.10;23.20;;;1.90;99.90;;;;;;5115705;27;20080;-64
2023/12/06 03:27:47;;;;;;;23.67;14.10;;;2.00;99.90;;;;;;5116456;27;20088;-64
2023/12/06 03:30:13;;;;;;;22.77;12.65;;;1.90;99.90;;;;;;5115911;27;20082;-64
2023/12/06 03:32:39;;;;;;;17.90;11.98;;;2.00;99.90;;;;;;5116333;27;20039;-64
2023/12/06 03:35:05;;;;;;;19.90;13.68;;;2.00;99.90;;;;;;5116421;27;20132;-64
2023/12/06 03:37:30;;;;;;;19.73;13.02;;;2.00;99.90;;;;;;5128685;27;20039;-64
2023/12/06 03:39:56;;;;;;;17.35;11.73;;;2.10;99.90;;;;;;5134771;27;20035;-64
2023/12/06 03:42:22;;;;;;;15.35;10.48;;;2.00;99.90;;;;;;5126135;27;20099;-64
2023/12/06 03:44:47;;;;;;;16.38;10.40;;;2.00;99.90;;;;;;5098149;27;20065;-64
2023/12/06 03:47:13;;;;;;;17.75;11.73;;;2.00;99.90;;;;;;5115773;27;20112;-64
2023/12/06 03:49:39;;;;;;;17.00;11.52;;;2.00;99.90;;;;;;5115756;27;20043;-64
2023/12/06 03:52:04;;;;;;;16.75;11.43;;;2.10;99.90;;;;;;5115623;27;20125;-64
2023/12/06 03:54:31;;;;;;;15.93;11.30;;;2.10;99.90;;;;;;5113895;27;20043;-64
2023/12/06 03:56:57;;;;;;;17.50;11.38;;;2.00;99.90;;;;;;5134241;27;20031;-64
2023/12/06 03:59:22;;;;;;;16.40;11.02;;;2.10;99.90;;;;;;5131872;27;20054;-64
2023/12/06 04:01:48;;;;;;;17.05;11.13;;;2.10;99.90;;;;;;5132870;27;20088;-64
2023/12/06 04:04:14;;;;;;;16.95;10.45;;;2.20;99.90;;;;;;5128751;27;20046;-64
2023/12/06 04:06:40;;;;;;;17.35;10.18;;;2.20;99.90;;;;;;5114858;27;20035;-64
2023/12/06 04:09:06;;;;;;;18.85;9.82;;;2.20;99.90;;;;;;5115963;27;20043;-64
2023/12/06 04:11:33;;;;;;;15.23;9.90;;;2.30;99.90;;;;;;5114849;27;20046;-64
2023/12/06 04:13:58;;;;;;;14.32;9.45;;;2.30;99.90;;;;;;5115275;27;20043;-64
2023/12/06 04:16:24;;;;;;;13.50;9.35;;;2.30;99.90;;;;;;5115273;27;20043;-64
2023/12/06 04:18:50;;;;;;;13.05;8.75;;;2.30;99.90;;;;;;5115330;27;20042;-64
2023/12/06 04:21:16;;;;;;;14.20;10.02;;;2.40;99.90;;;;;;5114615;27;20039;-64
2023/12/06 04:23:42;;;;;;;13.45;9.38;;;2.40;99.90;;;;;;5115279;27;20494;-64
2023/12/06 04:26:07;;;;;;;12.30;9.15;;;2.60;99.90;;;;;;5115187;27;20047;-64
2023/12/06 04:28:33;;;;;;;13.15;10.27;;;2.60;99.90;;;;;;5097432;27;20404;-64
2023/12/06 04:30:59;;;;;;;14.38;9.20;;;2.60;99.90;;;;;;5098401;27;20453;-64
2023/12/06 04:33:24;;;;;;;14.38;9.05;;;2.60;99.90;;;;;;5098150;27;20031;-64
2023/12/06 04:35:50;;;;;;;13.48;9.18;;;2.60;99.90;;;;;;5114301;27;20039;-64
2023/12/06 04:38:16;;;;;;;14.30;9.73;;;2.60;99.90;;;;;;5114757;27;20043;-64
2023/12/06 04:40:41;;;;;;;13.60;9.23;;;2.70;99.90;;;;;;5114025;27;20407;-64
2023/12/06 04:43:07;;;;;;;11.07;9.30;;;2.70;99.90;;;;;;5098371;27;20046;-64
2023/12/06 04:45:32;;;;;;;15.35;9.13;;;2.70;99.90;;;;;;5114926;27;20118;-64
2023/12/06 04:47:58;;;;;;;12.73;8.93;;;2.80;99.90;;;;;;5114476;27;20096;-64
2023/12/06 04:50:24;;;;;;;12.55;9.13;;;2.70;99.90;;;;;;5114825;27;20455;-64
2023/12/06 04:52:50;;;;;;;12.68;8.20;;;2.80;99.90;;;;;;5117488;27;20051;-64
2023/12/06 04:55:15;;;;;;;13.27;8.45;;;2.90;99.90;;;;;;5131139;27;20035;-64
2023/12/06 04:57:41;;;;;;;12.35;8.90;;;2.80;99.90;;;;;;5119467;27;20127;-64
2023/12/06 05:00:08;;;;;;;12.88;8.25;;;2.90;99.90;;;;;;5098368;27;20114;-64
2023/12/06 05:02:34;;;;;;;11.77;7.85;;;2.90;99.90;;;;;;5120526;27;20536;-64
2023/12/06 05:05:01;;;;;;;14.32;7.88;;;2.90;99.90;;;;;;5131919;27;20039;-64
2023/12/06 05:07:27;;;;;;;12.90;8.65;;;2.90;99.90;;;;;;5118544;27;20035;-64
2023/12/06 05:09:53;;;;;;;13.10;8.90;;;2.90;99.90;;;;;;5132126;27;20099;-64
2023/12/06 05:12:18;;;;;;;14.38;8.88;;;2.90;99.90;;;;;;5114510;28;20034;-64
2023/12/06 05:14:44;;;;;;;12.00;8.25;;;2.90;99.90;;;;;;5099339;27;20031;-64
2023/12/06 05:17:10;;;;;;;13.75;8.82;;;2.90;99.90;;;;;;5133798;27;20042;-64
2023/12/06 05:19:36;;;;;;;15.18;9.50;;;2.90;99.90;;;;;;5138564;27;20053;-64
2023/12/06 05:22:02;;;;;;;13.30;9.23;;;2.90;99.90;;;;;;5139046;27;20039;-64
2023/12/06 05:24:28;;;;;;;13.68;9.38;;;2.90;99.90;;;;;;5137259;27;20078;-64
2023/12/06 05:26:53;;;;;;;13.55;8.40;;;3.00;99.90;;;;;;5139656;27;20027;-64
2023/12/06 05:29:19;;;;;;;12.35;8.27;;;3.00;99.90;;;;;;5121026;27;20484;-64
2023/12/06 05:31:45;;;;;;;12.45;9.10;;;3.00;99.90;;;;;;5120445;27;20143;-64
2023/12/06 05:34:11;;;;;;;11.80;8.45;;;3.00;99.90;;;;;;5136954;27;20031;-64
2023/12/06 05:36:36;;;;;;;12.30;7.45;;;3.10;99.90;;;;;;5121465;27;20043;-64
2023/12/06 05:39:05;;;;;;;13.27;8.73;;;3.10;99.90;;;;;;5120647;27;20051;-64
2023/12/06 05:41:31;;;;;;;15.57;10.15;;;3.10;99.90;;;;;;5121228;27;20077;-64
2023/12/06 05:43:57;;;;;;;13.75;8.85;;;3.10;99.90;;;;;;5120503;27;20047;-64
2023/12/06 05:46:22;;;;;;;14.57;8.77;;;3.10;99.90;;;;;;5104176;27;20039;-64
2023/12/06 05:48:48;;;;;;;13.02;9.00;;;3.10;99.90;;;;;;5121328;27;20039;-64
2023/12/06 05:51:14;;;;;;;14.95;9.48;;;3.10;99.90;;;;;;5120476;27;20916;-64
2023/12/06 05:53:40;;;;;;;13.77;8.75;;;3.10;99.90;;;;;;5121010;27;20042;-63
2023/12/06 05:56:06;;;;;;;13.68;8.88;;;3.10;99.90;;;;;;5121576;27;20054;-64
2023/12/06 05:58:32;;;;;;;12.90;9.75;;;3.10;99.90;;;;;;5119931;27;20055;-64
2023/12/06 06:01:00;;;;;;;13.15;8.70;;;3.20;99.90;;;;;;5104418;27;20456;-64
2023/12/06 06:03:26;;;;;;;13.75;9.05;;;3.10;99.90;;;;;;5139184;27;20050;-64
2023/12/06 06:05:52;;;;;;;15.63;8.98;;;3.20;99.90;;;;;;5120371;27;20046;-64
2023/12/06 06:08:17;;;;;;;13.15;9.07;;;3.10;99.90;;;;;;5120816;27;20053;-63
2023/12/06 06:10:43;;;;;;;13.02;8.35;;;3.10;99.90;;;;;;5120751;27;20055;-64
2023/12/06 06:13:09;;;;;;;12.02;8.73;;;3.10;99.90;;;;;;5120245;27;20031;-63
2023/12/06 06:15:35;;;;;;;13.35;9.18;;;3.20;99.90;;;;;;5122929;27;20039;-64
2023/12/06 06:18:03;;;;;;;12.32;9.25;;;3.10;99.90;;;;;;5138276;27;20060;-64
2023/12/06 06:20:28;;;;;;;14.07;9.75;;;3.20;99.90;;;;;;5137060;27;20089;-64
2023/12/06 06:22:54;;;;;;;13.15;9.20;;;3.10;99.90;;;;;;5139308;27;20074;-63
2023/12/06 06:25:21;;;;;;;16.58;10.25;;;3.20;99.90;;;;;;5137723;27;20092;-63
2023/12/06 06:27:47;;;;;;;14.18;9.32;;;3.20;99.90;;;;;;5131303;27;20693;-64
2023/12/06 06:30:13;;;;;;;13.88;8.45;;;3.20;99.90;;;;;;5117215;27;20043;-63
2023/12/06 06:32:39;;;;;;;13.68;9.38;;;3.20;99.90;;;;;;5117343;27;20087;-63
2023/12/06 06:35:05;;;;;;;14.85;9.48;;;3.20;99.90;;;;;;5099795;27;20034;-63
2023/12/06 06:37:30;;;;;;;14.93;8.77;;;3.20;99.90;;;;;;5116943;27;20172;-63
2023/12/06 06:39:56;;;;;;;15.82;11.07;;;3.20;99.90;;;;;;5117651;27;20043;-64
2023/12/06 06:42:22;;;;;;;16.42;9.75;;;3.20;99.90;;;;;;5116605;27;20039;-63
2023/12/06 06:44:51;;;;;;;17.02;9.57;;;3.20;99.90;;;;;;5117170;27;20047;-63
2023/12/06 06:47:17;;;;;;;13.57;8.90;;;3.20;99.90;;;;;;5116263;27;20049;-64
2023/12/06 06:49:45;;;;;;;12.77;8.63;;;3.20;99.90;;;;;;5116948;27;20043;-64
2023/12/06 06:52:11;;;;;;;13.57;8.55;;;3.30;99.90;;;;;;5116940;27;20053;-63
2023/12/06 06:54:36;;;;;;;15.55;9.13;;;3.30;99.90;;;;;;5116195;27;20396;-64
2023/12/06 06:57:03;;;;;;;16.25;10.15;;;3.20;99.90;;;;;;5117148;27;20038;-64
2023/12/06 06:59:29;;;;;;;15.68;9.02;;;3.20;99.90;;;;;;5099562;27;20062;-63
2023/12/06 07:01:55;;;;;;;11.85;8.07;;;3.30;99.90;;;;;;5127315;27;20035;-63
2023/12/06 07:04:20;;;;;;;14.68;8.75;;;3.30;99.90;;;;;;5116374;27;20035;-63
2023/12/06 07:06:46;;;;;;;15.07;8.77;;;3.30;99.90;;;;;;5116745;27;20399;-63
2023/12/06 07:09:12;;;;;;;13.23;8.75;;;3.30;99.90;;;;;;5116244;27;20051;-63
2023/12/06 07:11:37;;;;;;;12.80;7.78;;;3.30;99.90;;;;;;5116875;27;20045;-64
2023/12/06 07:14:03;;;;;;;14.93;8.25;;;3.40;99.90;;;;;;5117289;27;20080;-64
2023/12/06 07:16:29;;;;;;;12.32;7.68;;;3.30;99.90;;;;;;5099407;27;20088;-64
2023/12/06 07:18:54;;;;;;;12.13;8.57;;;3.30;99.90;;;;;;5116848;27;20122;-64
2023/12/06 07:21:20;;;;;;;15.85;9.27;;;3.30;99.90;;;;;;5116506;27;20070;-63
2023/12/06 07:23:46;;;;;;;12.82;8.48;;;3.30;99.90;;;;;;5116509;27;20035;-63
2023/12/06 07:26:12;;;;;;;12.52;7.55;;;3.40;99.90;;;;;;5127258;27;20429;-63
2023/12/06 07:28:39;;;;;;;9.68;7.18;;;3.30;99.90;;;;;;5111493;27;20035;-64
2023/12/06 07:31:05;;;;;;;10.65;6.88;;;3.30;99.90;;;;;;5117878;27;20039;-63
2023/12/06 07:33:31;;;;;;;12.80;7.75;;;3.40;99.90;;;;;;5095432;27;20046;-63
2023/12/06 07:35:57;;;;;;;11.18;6.90;;;3.30;99.90;;;;;;5114085;27;20058;-63
2023/12/06 07:38:25;;;;;;;14.10;7.97;;;3.40;99.90;;;;;;5123096;27;20042;-63
2023/12/06 07:40:50;;;;;;;14.10;8.15;;;3.40;99.90;;;;;;5116983;27;20507;-62
2023/12/06 07:43:16;;;;;;;12.07;7.50;;;3.40;99.90;;;;;;5113450;27;20085;-63
2023/12/06 07:45:42;;;;;;;12.27;7.28;;;3.30;99.90;;;;;;5120724;27;20114;-63
2023/12/06 07:48:07;;;;;;;12.55;8.48;;;3.30;99.90;;;;;;5113088;27;20140;-63
2023/12/06 07:50:33;;;;;;;17.00;8.10;;;3.30;99.90;;;;;;5121815;27;20039;-63
2023/12/06 07:52:59;;;;;;;13.20;7.45;;;3.30;99.90;;;;;;5113701;27;20802;-63
2023/12/06 07:55:24;;;;;;;13.23;8.10;;;3.30;99.90;;;;;;5126508;27;20592;-63
2023/12/06 07:57:50;;;;;;;12.48;8.27;;;3.30;99.90;;;;;;5116129;27;20043;-61
2023/12/06 08:00:18;;;;;;;13.63;8.73;;;3.30;99.90;;;;;;5113019;27;20126;-61
2023/12/06 08:02:44;;;;;;;12.93;7.88;;;3.40;99.90;;;;;;5112625;27;20051;-60
2023/12/06 08:05:10;;;;;;;12.82;8.35;;;3.40;99.90;;;;;;5112460;27;20043;-61
2023/12/06 08:07:37;;;;;;;12.57;8.07;;;3.30;99.90;;;;;;5112832;27;20159;-61
2023/12/06 08:10:12;;;;;;;14.18;8.18;;;3.40;99.90;;;;;;5112086;27;20043;-63
2023/12/06 08:12:38;;;;;;;15.30;8.52;;;3.30;99.90;;;;;;5112309;27;20038;-62
2023/12/06 08:15:08;;;;;;;11.98;7.75;;;3.30;99.90;;;;;;5112363;27;20042;-61
2023/12/06 08:17:34;;;;;;;13.65;8.57;;;3.30;99.90;;;;;;5112197;27;20038;-61
2023/12/06 08:20:00;;;;;;;15.18;8.63;;;3.30;99.90;;;;;;5117763;27;20039;-61
2023/12/06 08:22:26;;;;;;;13.65;9.75;;;3.30;99.90;;;;;;5113228;27;20070;-61
2023/12/06 08:24:57;;;;;;;16.13;8.55;;;3.40;99.90;;;;;;5120175;27;20038;-64
2023/12/06 08:27:30;;;;;;;13.43;9.30;;;3.40;99.90;;;;;;5112801;27;20083;-61
2023/12/06 08:29:56;;;;;;;13.90;8.73;;;3.30;99.90;;;;;;5128705;27;20043;-61
2023/12/06 08:32:22;;;;;;;17.40;9.48;;;3.30;99.90;;;;;;5129747;27;20101;-61
2023/12/06 08:34:48;;;;;;;15.90;10.07;;;3.30;99.90;;;;;;5127342;27;20070;-61
2023/12/06 08:37:14;;;;;;;16.73;10.27;;;3.30;99.90;;;;;;5114324;27;20047;-61
2023/12/06 08:39:40;;;;;;;15.90;10.07;;;3.30;99.90;;;;;;5128837;27;20051;-61
2023/12/06 08:42:06;;;;;;;16.27;8.93;;;3.30;99.90;;;;;;5129738;27;20046;-60
2023/12/06 08:44:32;;;;;;;15.48;9.18;;;3.30;99.90;;;;;;5125031;27;20046;-61
2023/12/06 08:46:58;;;;;;;17.95;10.68;;;3.30;99.90;;;;;;5111826;27;21369;-60
2023/12/06 08:49:24;;;;;;;15.30;9.60;;;3.30;99.90;;;;;;5093927;27;20047;-64
2023/12/06 08:51:49;;;;;;;14.35;8.68;;;3.30;99.90;;;;;;5108002;27;20038;-63
2023/12/06 08:54:15;;;;;;;13.77;8.32;;;3.40;99.90;;;;;;5107854;27;20123;-62
2023/12/06 08:56:41;;;;;;;15.32;9.70;;;3.40;99.90;;;;;;5108633;27;20069;-62
2023/12/06 08:59:07;;;;;;;13.18;7.97;;;3.50;99.90;;;;;;5110951;27;20059;-62
2023/12/06 09:01:33;;;;;;;12.95;8.07;;;3.50;99.90;;;;;;5110833;27;20472;-62
2023/12/06 09:03:59;;;;;;;13.07;8.40;;;3.50;99.90;;;;;;5111630;27;20039;-62
2023/12/06 09:06:25;;;;;;;19.15;10.13;;;3.50;99.90;;;;;;5112989;28;20047;-62
2023/12/06 09:08:51;;;;;;;14.07;8.40;;;3.50;99.90;;;;;;5110920;27;20041;-62
2023/12/06 09:11:20;;;;;;;11.20;8.00;;;3.50;99.90;;;;;;5112268;28;20479;-62
2023/12/06 09:13:47;;;;;;;12.90;8.10;;;3.50;99.90;;;;;;5118426;28;20417;-63
2023/12/06 09:16:13;;;;;;;15.00;9.25;;;3.50;99.90;;;;;;5118206;28;20058;-63
2023/12/06 09:18:38;;;;;;;14.82;8.85;;;3.50;99.90;;;;;;5100289;28;20035;-62
2023/12/06 09:21:04;;;;;;;12.27;8.50;;;3.50;99.90;;;;;;5119727;27;20042;-63
2023/12/06 09:23:31;;;;;;;11.52;7.50;;;3.50;99.90;;;;;;5110388;28;20109;-63
2023/12/06 09:25:58;;;;;;;11.10;6.43;;;3.50;99.90;;;;;;5111599;28;20039;-63
2023/12/06 09:28:23;;;;;;;13.23;7.57;;;3.50;99.90;;;;;;5114608;28;20399;-62
2023/12/06 09:30:49;;;;;;;13.57;8.65;;;3.60;99.90;;;;;;5117864;28;20043;-62
2023/12/06 09:33:15;;;;;;;13.45;8.23;;;3.60;99.90;;;;;;5115486;28;20122;-62
2023/12/06 09:35:41;;;;;;;11.25;7.15;;;3.60;99.90;;;;;;5097062;28;20044;-62
2023/12/06 09:38:08;;;;;;;13.32;8.10;;;3.60;99.90;;;;;;5100924;28;20126;-62
2023/12/06 09:40:33;;;;;;;10.20;6.18;;;3.60;99.90;;;;;;5099428;28;20050;-63
2023/12/06 09:43:02;;;;;;;11.18;6.95;;;3.60;99.90;;;;;;5095809;28;20046;-62
2023/12/06 09:45:29;;;;;;;11.85;6.85;;;3.60;99.90;;;;;;5097322;28;20051;-62
2023/12/06 09:47:55;;;;;;;11.85;6.55;;;3.60;99.90;;;;;;5113896;28;20134;-65
2023/12/06 09:50:21;;;;;;;9.93;5.63;;;3.60;99.90;;;;;;5121505;28;20031;-62
2023/12/06 09:52:54;;;;;;;12.70;5.43;;;3.60;99.90;;;;;;5115295;28;20042;-62
2023/12/06 09:55:23;;;;;;;8.80;5.28;;;3.60;99.90;;;;;;5115085;28;20356;-62
2023/12/06 09:57:51;;;;;;;9.10;5.63;;;3.60;99.90;;;;;;5097311;28;20104;-62
2023/12/06 10:00:17;;;;;;;13.80;5.60;;;3.70;99.90;;;;;;5126677;28;20481;-63
2023/12/06 10:02:50;;;;;;;10.50;5.63;;;3.60;99.90;;;;;;5126274;27;20395;-63
2023/12/06 10:05:16;;;;;;;8.38;5.15;;;3.60;99.90;;;;;;5100185;27;20388;-64
2023/12/06 10:07:42;;;;;;;9.63;5.20;;;3.60;99.90;;;;;;5130445;27;20046;-63
2023/12/06 10:10:19;;;;;;;9.48;5.80;;;3.70;99.90;;;;;;5117792;27;20134;-62
2023/12/06 10:12:50;;;;;;;9.70;5.65;;;3.60;99.90;;;;;;5117379;27;20058;-62
2023/12/06 10:15:19;;;;;;;8.32;5.63;;;3.70;99.90;;;;;;5132345;27;20402;-62
2023/12/06 10:17:46;;;;;;;10.70;6.05;;;3.70;99.90;;;;;;5123134;27;20501;-62
2023/12/06 10:20:13;;;;;;;11.52;5.63;;;3.70;99.90;;;;;;5133230;27;20091;-62
2023/12/06 10:22:39;;;;;;;9.30;5.63;;;3.70;99.90;;;;;;5134816;27;20070;-62
2023/12/06 10:25:11;;;;;;;7.63;5.18;;;3.70;99.90;;;;;;5129914;27;20043;-62
2023/12/06 10:27:37;;;;;;;9.63;5.75;;;3.70;99.90;;;;;;5100342;27;20039;-62
2023/12/06 10:30:08;;;;;;;9.73;6.63;;;3.80;99.90;;;;;;5124278;27;20141;-62
2023/12/06 10:32:34;;;;;;;13.90;5.50;;;3.80;99.90;;;;;;5108628;27;20800;-62
2023/12/06 10:35:02;;;;;;;8.30;5.20;;;3.80;99.90;;;;;;5117317;27;20035;-62
2023/12/06 10:37:28;;;;;;;9.95;5.20;;;3.80;99.90;;;;;;5117901;27;20087;-62
2023/12/06 10:40:09;;;;;;;9.48;5.35;;;3.80;99.90;;;;;;5110936;27;20035;-62
2023/12/06 10:42:36;;;;;;;13.25;5.22;;;3.80;99.90;;;;;;5134872;27;20601;-62
2023/12/06 10:45:03;;;;;;;8.68;5.35;;;3.90;99.90;;;;;;5083755;27;20039;-62
2023/12/06 10:47:31;;;;;;;8.77;5.82;;;3.90;99.90;;;;;;5099366;27;20095;-62
2023/12/06 10:49:57;;;;;;;8.18;5.10;;;3.90;99.90;;;;;;5100064;27;20047;-62
2023/12/06 10:52:23;;;;;;;8.52;5.15;;;3.90;99.90;;;;;;5118427;27;20036;-62
2023/12/06 10:54:50;;;;;;;8.32;5.25;;;3.80;99.90;;;;;;5128635;27;20081;-62
2023/12/06 10:57:17;;;;;;;9.32;5.22;;;3.90;99.90;;;;;;5134421;27;20055;-63
2023/12/06 10:59:45;;;;;;;8.93;5.15;;;3.90;99.90;;;;;;5134281;27;20392;-63
2023/12/06 11:02:11;;;;;;;9.85;4.97;;;3.90;99.90;;;;;;5108294;27;20042;-62
2023/12/06 11:04:42;;;;;;;8.70;5.18;;;4.00;99.90;;;;;;5129830;27;20035;-62
2023/12/06 11:07:17;;;;;;;10.85;6.15;;;3.90;99.90;;;;;;5116995;27;20038;-62
2023/12/06 11:09:57;;;;;;;10.10;6.35;;;3.90;99.90;;;;;;5119942;27;20035;-62
2023/12/06 11:12:46;;;;;;;10.52;5.53;;;4.00;99.90;;;;;;5105099;27;20046;-63
2023/12/06 11:15:24;;;;;;;11.45;6.22;;;4.00;99.90;;;;;;5115927;27;20031;-63
2023/12/06 11:18:11;;;;;;;11.27;5.45;;;3.90;99.90;;;;;;5116767;27;20083;-63
2023/12/06 11:20:41;;;;;;;12.70;8.65;;;3.80;99.90;;;;;;5099942;27;20130;-63
2023/12/06 11:23:09;;;;;;;14.25;8.52;;;3.80;99.90;;;;;;5116736;27;20039;-63
2023/12/06 11:25:41;;;;;;;13.13;8.60;;;3.80;99.90;;;;;;5133889;27;20088;-63
2023/12/06 11:28:14;;;;;;;18.13;12.82;;;3.80;99.90;;;;;;5116757;27;20484;-62
2023/12/06 11:30:57;;;;;;;16.15;11.23;;;3.80;99.90;;;;;;5131526;27;20042;-62
2023/12/06 11:33:23;;;;;;;14.95;9.10;;;3.80;99.90;;;;;;5133470;27;20115;-62
2023/12/06 11:35:54;;;;;;;13.40;9.68;;;3.80;99.90;;;;;;5132772;27;20066;-62
2023/12/06 11:38:40;;;;;;;14.88;6.63;;;3.80;99.90;;;;;;5133416;27;20070;-62
2023/12/06 11:41:06;;;;;;;9.60;6.18;;;3.80;99.90;;;;;;5133607;27;20047;-63
2023/12/06 11:43:33;;;;;;;11.88;6.40;;;3.80;99.90;;;;;;5132039;27;20046;-62
2023/12/06 11:46:07;;;;;;;12.10;6.70;;;3.80;99.90;;;;;;5134018;27;20099;-62
2023/12/06 11:48:35;;;;;;;10.70;5.90;;;3.70;99.90;;;;;;5133211;27;20045;-63
2023/12/06 11:51:01;;;;;;;17.85;7.18;;;3.70;99.90;;;;;;5115634;27;20042;-62
2023/12/06 11:53:28;;;;;;;10.25;6.18;;;3.70;99.90;;;;;;5128857;27;20035;-63
2023/12/06 11:55:57;;;;;;;10.98;6.38;;;3.70;99.90;;;;;;5126625;27;20035;-63
2023/12/06 11:58:30;;;;;;;9.80;6.53;;;3.80;99.90;;;;;;5096651;27;20054;-63
2023/12/06 12:00:57;;;;;;;12.25;6.95;;;3.80;99.90;;;;;;5111677;27;20080;-63
2023/12/06 12:03:24;;;;;;;12.07;6.20;;;3.80;99.90;;;;;;5122042;27;20035;-63
2023/12/06 12:05:50;;;;;;;11.10;7.20;;;3.80;99.90;;;;;;5114724;27;20118;-63
2023/12/06 12:08:16;;;;;;;12.13;6.70;;;3.80;99.90;;;;;;5115581;27;20456;-63
2023/12/06 12:10:42;;;;;;;10.23;5.75;;;3.80;99.90;;;;;;5114667;27;20043;-64
2023/12/06 12:13:23;;;;;;;9.93;6.43;;;3.80;99.90;;;;;;5116247;27;20388;-63
2023/12/06 12:15:57;;;;;;;10.45;6.43;;;3.90;99.90;;;;;;5115454;27;20083;-63
2023/12/06 12:18:32;;;;;;;12.13;6.23;;;3.90;99.90;;;;;;5114795;27;20039;-63
2023/12/06 12:20:58;;;;;;;10.25;6.20;;;4.00;99.90;;;;;;5115459;27;20830;-63
2023/12/06 12:23:30;;;;;;;9.63;5.82;;;4.00;99.90;;;;;;5115623;27;20053;-63
2023/12/06 12:25:56;;;;;;;9.15;6.18;;;3.90;99.90;;;;;;5114736;27;20035;-63
2023/12/06 12:28:23;;;;;;;9.23;5.40;;;4.00;99.90;;;;;;5114944;27;20131;-63
2023/12/06 12:31:01;;;;;;;12.40;8.45;;;4.00;99.90;;;;;;5132624;27;20047;-62
2023/12/06 12:33:28;;;;;;;12.60;8.57;;;4.00;99.90;;;;;;5131102;27;20101;-63
2023/12/06 12:35:55;;;;;;;16.65;11.05;;;4.10;99.90;;;;;;5114561;27;20126;-63
2023/12/06 12:38:21;;;;;;;18.25;10.15;;;4.10;99.90;;;;;;5114479;27;20035;-63
2023/12/06 12:40:48;;;;;;;11.00;7.78;;;4.10;99.90;;;;;;5114088;27;20121;-63